ENSB

Svalbard/Longyear

Airport
ICAO code
ENSB
Summary
ICAO Region
EUR
ICAO Territory
Location

Svalbard, Spitzbergen,

Elevation
88 ft
Coordinates
78° 14' 46" N , 15° 27' 56" E
KCC
Metar
ENSB 201520Z 19005KT 120V260 9999 VCSH FEW018 BKN045 00/M06 Q1022 RMK WIND 1400FT 25004KT

Description

Svalbard Airport, Longyear is the main airport serving Svalbard in Norway. It is located 1.6 nm northwest of Longyearbyen, and it is the northernmost airport in the world with public scheduled flights.

Climatology

Tundra climate (Köppen climate classification ET) - average temperature below 10°C in all twelve months of the year with very little precipitation

Runways

Designator Length Width Surface Rops
10/28 2319 45 ASP Yes/Yes

Airport map

Aerial View

SKYbrary Partners:

Safety knowledge contributed by: